createdAt,value
2022-09-22T00:01:19.772Z,6.55
2022-09-22T00:03:50.202Z,7.47
2022-09-22T00:06:29.692Z,2.00
2022-09-22T00:09:00.612Z,4.82
2022-09-22T00:11:36.086Z,2.72
2022-09-22T00:14:06.006Z,4.95
2022-09-22T00:16:47.733Z,5.88
2022-09-22T00:19:26.521Z,7.03
2022-09-22T00:21:53.956Z,3.30
2022-09-22T00:24:22.776Z,3.78
2022-09-22T00:26:51.097Z,2.45
2022-09-22T00:29:18.116Z,3.90
2022-09-22T00:31:45.645Z,3.28
2022-09-22T00:34:21.317Z,4.72
2022-09-22T00:36:48.865Z,4.40
2022-09-22T00:39:17.477Z,2.63
2022-09-22T00:41:47.489Z,3.63
2022-09-22T00:44:26.628Z,5.93
2022-09-22T00:46:55.648Z,3.65
2022-09-22T00:49:55.778Z,4.40
2022-09-22T00:52:27.347Z,4.80
2022-09-22T00:54:58.724Z,3.85
2022-09-22T00:57:31.319Z,3.90
2022-09-22T00:59:59.937Z,2.72
2022-09-22T01:02:26.905Z,2.95
2022-09-22T01:04:53.816Z,2.90
2022-09-22T01:07:24.261Z,4.75
2022-09-22T01:09:52.267Z,4.10
2022-09-22T01:12:19.853Z,2.63
2022-09-22T01:14:55.685Z,2.83
2022-09-22T01:17:38.345Z,2.13
2022-09-22T01:20:26.879Z,6.15
2022-09-22T01:23:18.936Z,2.38
2022-09-22T01:25:54.589Z,3.85
2022-09-22T01:28:39.931Z,2.33
2022-09-22T01:31:32.926Z,2.78
2022-09-22T01:34:15.286Z,2.88
2022-09-22T01:36:55.427Z,4.40
2022-09-22T01:39:34.513Z,2.85
2022-09-22T01:42:05.971Z,3.72
2022-09-22T01:44:38.416Z,5.10
2022-09-22T01:47:13.343Z,4.72
2022-09-22T01:49:46.746Z,4.82
2022-09-22T01:52:18.524Z,5.50
2022-09-22T01:54:54.917Z,5.30
2022-09-22T01:57:55.726Z,7.70
2022-09-22T02:00:26.504Z,4.28
2022-09-22T02:03:02.314Z,2.80
2022-09-22T02:05:34.526Z,2.28
2022-09-22T02:08:09.980Z,3.05
2022-09-22T02:10:41.595Z,3.03
2022-09-22T02:13:08.708Z,2.08
2022-09-22T02:15:54.502Z,2.72
2022-09-22T02:18:30.469Z,5.53
2022-09-22T02:20:57.872Z,4.63
2022-09-22T02:23:24.918Z,7.43
2022-09-22T02:25:53.466Z,4.40
2022-09-22T02:28:22.191Z,3.95
2022-09-22T02:31:17.650Z,3.72
2022-09-22T02:33:39.999Z,5.10
2022-09-22T02:36:18.879Z,4.60
2022-09-22T02:39:07.287Z,4.18
2022-09-22T02:42:06.061Z,4.78
2022-09-22T02:45:14.848Z,3.60
2022-09-22T02:47:50.701Z,4.28
2022-09-22T02:50:22.062Z,4.32
2022-09-22T02:52:52.729Z,4.63
2022-09-22T02:55:20.008Z,4.60
2022-09-22T02:57:46.918Z,5.95
2022-09-22T03:00:14.324Z,6.90
2022-09-22T03:02:41.211Z,4.07
2022-09-22T03:05:08.306Z,5.82
2022-09-22T03:07:35.144Z,4.93
2022-09-22T03:10:01.959Z,3.42
2022-09-22T03:12:28.925Z,6.93
2022-09-22T03:14:55.992Z,6.85
2022-09-22T03:17:22.862Z,7.05
2022-09-22T03:19:49.750Z,7.95
2022-09-22T03:22:16.682Z,6.68
2022-09-22T03:24:43.500Z,11.07
2022-09-22T03:27:10.348Z,5.18
2022-09-22T03:29:37.209Z,5.45
2022-09-22T03:32:04.073Z,8.68
2022-09-22T03:34:31.033Z,5.80
2022-09-22T03:36:57.992Z,6.35
2022-09-22T03:39:24.922Z,7.18
2022-09-22T03:41:51.704Z,5.25
2022-09-22T03:44:18.524Z,3.38
2022-09-22T03:46:45.302Z,4.68
2022-09-22T03:49:12.184Z,5.03
2022-09-22T03:51:39.131Z,5.90
2022-09-22T03:54:06.675Z,4.80
2022-09-22T03:56:33.625Z,7.72
2022-09-22T03:59:00.573Z,7.40
2022-09-22T04:01:27.442Z,5.75
2022-09-22T04:03:54.273Z,8.85
2022-09-22T04:06:21.708Z,4.68
2022-09-22T04:08:48.770Z,9.35
2022-09-22T04:11:15.608Z,11.95
2022-09-22T04:13:46.228Z,8.13
2022-09-22T04:16:13.741Z,6.38
2022-09-22T04:18:40.675Z,9.63
2022-09-22T04:21:08.331Z,6.60
2022-09-22T04:23:35.348Z,7.20
2022-09-22T04:26:02.301Z,9.57
2022-09-22T04:28:29.793Z,11.80
2022-09-22T04:30:57.545Z,5.70
2022-09-22T04:33:25.092Z,6.10
2022-09-22T04:35:52.534Z,5.72
2022-09-22T04:38:19.965Z,5.03
2022-09-22T04:40:46.831Z,6.78
2022-09-22T04:43:13.809Z,6.25
2022-09-22T04:45:42.926Z,6.90
2022-09-22T04:48:09.841Z,7.78
2022-09-22T04:50:36.770Z,9.00
2022-09-22T04:53:06.783Z,9.57
2022-09-22T04:55:36.040Z,9.38
2022-09-22T04:58:02.929Z,9.40
2022-09-22T05:00:30.935Z,6.32
2022-09-22T05:02:58.073Z,11.00
2022-09-22T05:05:24.944Z,8.30
2022-09-22T05:07:54.922Z,9.45
2022-09-22T05:10:25.392Z,13.15
2022-09-22T05:12:58.934Z,9.32
2022-09-22T05:15:26.809Z,10.18
2022-09-22T05:17:55.313Z,9.43
2022-09-22T05:20:22.322Z,9.00
2022-09-22T05:22:49.698Z,6.30
2022-09-22T05:25:19.116Z,8.50
2022-09-22T05:27:55.581Z,12.75
2022-09-22T05:30:26.072Z,8.63
2022-09-22T05:32:56.515Z,6.78
2022-09-22T05:35:36.979Z,7.70
2022-09-22T05:38:04.529Z,9.10
2022-09-22T05:40:51.687Z,9.45
2022-09-22T05:46:29.738Z,7.40
2022-09-22T05:48:56.626Z,8.75
2022-09-22T05:51:25.508Z,10.90
2022-09-22T05:53:53.046Z,11.23
2022-09-22T05:56:39.313Z,14.55
2022-09-22T05:59:41.587Z,14.57
2022-09-22T06:02:55.107Z,8.85
2022-09-22T06:05:47.364Z,14.13
2022-09-22T06:11:34.098Z,10.02
2022-09-22T06:14:13.031Z,13.32
2022-09-22T06:16:40.169Z,10.07
2022-09-22T06:19:07.165Z,11.50
2022-09-22T06:21:35.044Z,9.30
2022-09-22T06:24:02.257Z,12.13
2022-09-22T06:26:29.177Z,10.00
2022-09-22T06:28:56.908Z,12.27
2022-09-22T06:31:24.367Z,9.77
2022-09-22T06:33:51.342Z,11.00
2022-09-22T06:36:23.204Z,14.65
2022-09-22T06:38:50.800Z,14.43
2022-09-22T06:41:17.746Z,11.80
2022-09-22T06:43:44.626Z,16.98
2022-09-22T06:46:12.093Z,11.90
2022-09-22T06:48:39.191Z,12.85
2022-09-22T06:51:06.044Z,11.10
2022-09-22T06:53:32.854Z,15.00
2022-09-22T06:56:05.986Z,13.88
2022-09-22T06:58:46.986Z,14.43
2022-09-22T07:01:20.092Z,13.90
2022-09-22T07:03:47.331Z,11.10
2022-09-22T07:06:20.572Z,13.10
2022-09-22T07:08:48.869Z,16.73
2022-09-22T07:11:17.907Z,12.52
2022-09-22T07:13:45.677Z,13.10
2022-09-22T07:16:17.688Z,13.48
2022-09-22T07:18:48.085Z,13.18
2022-09-22T07:21:26.355Z,15.65
2022-09-22T07:23:57.622Z,14.88
2022-09-22T07:26:34.019Z,8.73
2022-09-22T07:29:03.521Z,8.55
2022-09-22T07:31:32.135Z,7.80
2022-09-22T07:34:00.304Z,8.25
2022-09-22T07:36:30.820Z,11.38
2022-09-22T07:39:03.344Z,9.23
2022-09-22T07:41:31.930Z,9.55
2022-09-22T07:44:23.428Z,6.80
2022-09-22T07:46:50.352Z,8.82
2022-09-22T07:49:22.118Z,8.82
2022-09-22T07:51:49.679Z,9.38
2022-09-22T07:54:16.837Z,10.60
2022-09-22T07:56:45.076Z,7.07
2022-09-22T07:59:15.702Z,6.85
2022-09-22T08:01:47.545Z,10.07
2022-09-22T08:04:16.847Z,9.13
2022-09-22T08:06:45.110Z,8.52
2022-09-22T08:09:13.019Z,6.80
2022-09-22T08:11:40.595Z,8.30
2022-09-22T08:14:11.304Z,7.95
2022-09-22T08:16:39.975Z,6.05
2022-09-22T08:19:12.676Z,6.70
2022-09-22T08:21:48.903Z,4.25
2022-09-22T08:24:22.281Z,9.48
2022-09-22T08:26:52.160Z,8.10
2022-09-22T08:29:19.009Z,5.53
2022-09-22T08:31:47.505Z,5.93
2022-09-22T08:34:17.708Z,8.50
2022-09-22T08:36:46.247Z,6.07
2022-09-22T08:39:13.485Z,5.00
2022-09-22T08:41:43.399Z,5.35
2022-09-22T08:44:16.382Z,5.30
2022-09-22T08:46:47.618Z,5.53
2022-09-22T08:49:48.939Z,7.72
2022-09-22T08:52:43.860Z,7.57
2022-09-22T08:55:30.657Z,3.25
2022-09-22T08:58:27.999Z,7.85
2022-09-22T09:01:20.305Z,4.35
2022-09-22T09:03:57.780Z,7.33
2022-09-22T09:06:39.783Z,11.00
2022-09-22T09:09:47.925Z,7.05
2022-09-22T09:13:08.693Z,4.32
2022-09-22T09:15:38.078Z,6.50
2022-09-22T09:18:16.630Z,7.00
2022-09-22T09:20:46.429Z,4.60
2022-09-22T09:26:32.665Z,4.55
2022-09-22T09:29:04.274Z,4.28
2022-09-22T09:31:42.426Z,6.35
2022-09-22T09:34:14.689Z,4.95
2022-09-22T09:36:44.033Z,7.38
2022-09-22T09:39:29.213Z,4.45
2022-09-22T09:41:57.793Z,7.78
2022-09-22T09:44:38.986Z,8.05
2022-09-22T09:47:43.132Z,8.07
2022-09-22T09:50:11.384Z,4.70
2022-09-22T09:52:38.981Z,3.80
2022-09-22T09:55:33.488Z,8.25
2022-09-22T09:58:03.333Z,6.00
2022-09-22T10:00:32.998Z,4.18
2022-09-22T10:03:02.853Z,5.72
2022-09-22T10:05:32.443Z,6.32
2022-09-22T10:08:24.477Z,3.20
2022-09-22T10:10:58.226Z,6.40
2022-09-22T10:13:33.120Z,6.05
2022-09-22T10:16:06.666Z,5.22
2022-09-22T10:18:41.797Z,6.85
2022-09-22T10:21:24.746Z,6.22
2022-09-22T10:24:03.016Z,9.65
2022-09-22T10:26:33.736Z,6.00
2022-09-22T10:29:12.810Z,6.47
2022-09-22T10:31:41.780Z,6.85
2022-09-22T10:34:38.493Z,4.47
2022-09-22T10:37:12.805Z,5.63
2022-09-22T10:40:00.532Z,4.05
2022-09-22T10:42:41.355Z,3.13
2022-09-22T10:45:16.415Z,6.57
2022-09-22T10:47:56.172Z,7.82
2022-09-22T10:51:09.201Z,8.13
2022-09-22T10:53:55.047Z,7.15
2022-09-22T10:56:41.778Z,6.32
2022-09-22T10:59:36.365Z,6.55
2022-09-22T11:02:30.460Z,4.28
2022-09-22T11:05:45.363Z,4.43
2022-09-22T11:08:34.428Z,4.85
2022-09-22T11:11:35.907Z,3.88
2022-09-22T11:14:13.036Z,7.93
2022-09-22T11:17:25.424Z,6.97
2022-09-22T11:20:34.181Z,2.95
2022-09-22T11:23:29.203Z,7.57
2022-09-22T11:26:10.968Z,4.30
2022-09-22T11:29:14.002Z,4.05
2022-09-22T11:31:59.918Z,5.57
2022-09-22T11:34:42.980Z,5.07
2022-09-22T11:37:26.782Z,3.65
2022-09-22T11:40:17.187Z,5.20
2022-09-22T11:42:59.426Z,3.08
2022-09-22T11:45:50.982Z,7.03
2022-09-22T11:48:17.851Z,3.70
2022-09-22T11:51:00.114Z,6.53
2022-09-22T11:53:47.057Z,3.67
2022-09-22T11:56:49.975Z,3.47
2022-09-22T11:59:57.372Z,7.30
2022-09-22T12:02:41.187Z,3.85
2022-09-22T12:05:26.977Z,4.82
2022-09-22T12:08:02.452Z,4.47
2022-09-22T12:10:39.835Z,2.97
2022-09-22T12:13:33.600Z,5.25
2022-09-22T12:16:23.076Z,5.78
2022-09-22T12:19:20.615Z,4.60
2022-09-22T12:22:11.790Z,2.78
2022-09-22T12:24:39.913Z,3.63
2022-09-22T12:27:12.957Z,4.28
2022-09-22T12:29:41.638Z,4.78
2022-09-22T12:32:30.891Z,2.65
2022-09-22T12:35:07.471Z,2.95
2022-09-22T12:37:39.543Z,3.28
2022-09-22T12:40:41.434Z,4.15
2022-09-22T12:43:16.144Z,6.35
2022-09-22T12:45:43.674Z,2.53
2022-09-22T12:48:17.922Z,2.83
2022-09-22T12:50:45.989Z,3.72
2022-09-22T12:53:22.139Z,4.28
2022-09-22T12:55:50.136Z,4.65
2022-09-22T12:58:24.106Z,4.22
2022-09-22T13:00:56.320Z,4.95
2022-09-22T13:03:28.566Z,5.43
2022-09-22T13:06:15.203Z,5.13
2022-09-22T13:08:45.015Z,3.03
2022-09-22T13:11:12.320Z,5.05
2022-09-22T13:13:50.565Z,4.70
2022-09-22T13:16:17.942Z,2.20
2022-09-22T13:18:54.616Z,3.47
2022-09-22T13:21:32.473Z,3.08
2022-09-22T13:24:02.422Z,4.65
2022-09-22T13:26:29.244Z,5.45
2022-09-22T13:29:19.863Z,7.15
2022-09-22T13:31:48.449Z,4.88
2022-09-22T13:34:31.061Z,3.75
2022-09-22T13:37:07.926Z,7.72
2022-09-22T13:39:47.818Z,4.05
2022-09-22T13:42:22.278Z,4.22
2022-09-22T13:44:58.974Z,1.90
2022-09-22T13:47:28.145Z,6.97
2022-09-22T13:49:58.093Z,3.97
2022-09-22T13:52:31.300Z,2.55
2022-09-22T13:55:03.173Z,4.03
2022-09-22T13:57:37.626Z,3.30
2022-09-22T14:00:08.355Z,4.20
2022-09-22T14:02:36.621Z,8.95
2022-09-22T14:05:07.967Z,3.45
2022-09-22T14:07:49.591Z,3.70
2022-09-22T14:10:27.705Z,5.55
2022-09-22T14:12:55.437Z,2.83
2022-09-22T14:15:37.831Z,5.88
2022-09-22T14:18:19.225Z,3.05
2022-09-22T14:20:47.274Z,3.58
2022-09-22T14:23:32.031Z,2.50
2022-09-22T14:26:01.874Z,3.90
2022-09-22T14:28:32.999Z,3.33
2022-09-22T14:30:59.923Z,3.50
2022-09-22T14:33:33.464Z,3.15
2022-09-22T14:36:05.965Z,3.38
2022-09-22T14:38:44.398Z,4.63
2022-09-22T14:41:26.906Z,1.98
2022-09-22T14:43:55.093Z,2.25
2022-09-22T14:46:41.606Z,4.88
2022-09-22T14:49:39.463Z,2.50
2022-09-22T14:52:18.402Z,5.13
2022-09-22T14:54:45.377Z,5.53
2022-09-22T14:57:16.659Z,2.58
2022-09-22T15:00:07.533Z,4.15
2022-09-22T15:02:41.399Z,3.80
2022-09-22T15:05:11.253Z,3.28
2022-09-22T15:07:46.369Z,4.35
2022-09-22T15:10:32.676Z,1.50
2022-09-22T15:13:26.727Z,3.90
2022-09-22T15:15:53.747Z,2.60
2022-09-22T15:18:20.681Z,4.20
2022-09-22T15:20:55.798Z,3.33
2022-09-22T15:23:40.969Z,3.33
2022-09-22T15:26:21.686Z,4.00
2022-09-22T15:28:53.654Z,4.20
2022-09-22T15:31:26.878Z,2.33
2022-09-22T15:34:06.385Z,2.75
2022-09-22T15:36:44.125Z,2.92
2022-09-22T15:39:22.307Z,3.47
2022-09-22T15:41:50.488Z,4.10
2022-09-22T15:44:17.765Z,4.03
2022-09-22T15:46:48.807Z,2.80
2022-09-22T15:49:21.032Z,4.03
2022-09-22T15:51:51.177Z,3.50
2022-09-22T15:54:23.493Z,4.85
2022-09-22T15:56:52.584Z,3.28
2022-09-22T15:59:26.755Z,2.53
2022-09-22T16:01:57.232Z,2.28
2022-09-22T16:04:24.719Z,2.00
2022-09-22T16:06:55.627Z,1.30
2022-09-22T16:09:23.535Z,2.75
2022-09-22T16:11:50.551Z,4.40
2022-09-22T16:14:18.189Z,3.85
2022-09-22T16:16:46.181Z,3.05
2022-09-22T16:19:14.111Z,1.55
2022-09-22T16:21:49.249Z,3.15
2022-09-22T16:24:16.642Z,5.20
2022-09-22T16:26:48.839Z,5.35
2022-09-22T16:29:17.627Z,2.83
2022-09-22T16:31:44.578Z,3.47
2022-09-22T16:34:11.868Z,2.40
2022-09-22T16:36:41.088Z,4.00
2022-09-22T16:39:07.949Z,2.60
2022-09-22T16:41:36.031Z,2.58
2022-09-22T16:44:04.536Z,3.38
2022-09-22T16:46:33.741Z,3.22
2022-09-22T16:49:05.814Z,2.97
2022-09-22T16:51:37.017Z,2.22
2022-09-22T16:54:13.775Z,4.28
2022-09-22T16:56:43.364Z,3.08
2022-09-22T16:59:10.675Z,4.35
2022-09-22T17:01:38.395Z,3.45
2022-09-22T17:04:07.583Z,4.03
2022-09-22T17:06:36.126Z,2.83
2022-09-22T17:09:04.252Z,5.05
2022-09-22T17:11:34.583Z,2.75
2022-09-22T17:14:12.236Z,3.50
2022-09-22T17:16:45.259Z,3.25
2022-09-22T17:19:18.479Z,6.70
2022-09-22T17:21:53.243Z,5.25
2022-09-22T17:24:20.239Z,5.07
2022-09-22T17:26:49.308Z,3.42
2022-09-22T17:29:18.461Z,4.38
2022-09-22T17:31:49.072Z,3.67
2022-09-22T17:34:16.221Z,3.13
2022-09-22T17:36:43.509Z,4.40
2022-09-22T17:39:10.782Z,3.88
2022-09-22T17:41:45.459Z,3.25
2022-09-22T17:44:13.823Z,3.42
2022-09-22T17:47:00.723Z,5.22
2022-09-22T17:49:45.996Z,5.07
2022-09-22T17:52:33.510Z,2.92
2022-09-22T17:55:09.670Z,3.00
2022-09-22T17:57:41.854Z,4.07
2022-09-22T18:00:21.212Z,3.80
2022-09-22T18:02:50.378Z,5.68
2022-09-22T18:05:20.294Z,5.40
2022-09-22T18:07:50.529Z,4.50
2022-09-22T18:12:46.890Z,6.68
2022-09-22T18:15:13.937Z,6.22
2022-09-22T18:17:42.430Z,7.38
2022-09-22T18:20:14.838Z,4.50
2022-09-22T18:22:47.492Z,3.97
2022-09-22T18:25:15.564Z,6.60
2022-09-22T18:27:42.449Z,5.00
2022-09-22T18:30:15.334Z,7.55
2022-09-22T18:32:42.914Z,2.33
2022-09-22T18:35:12.766Z,3.85
2022-09-22T18:37:39.971Z,5.53
2022-09-22T18:40:07.892Z,5.25
2022-09-22T18:42:37.886Z,6.78
2022-09-22T18:45:05.114Z,13.20
2022-09-22T18:47:32.192Z,15.70
2022-09-22T18:49:59.204Z,12.20
2022-09-22T18:52:26.087Z,11.73
2022-09-22T18:54:54.226Z,8.88
2022-09-22T18:57:25.607Z,8.65
2022-09-22T18:59:53.981Z,6.25
2022-09-22T19:02:22.557Z,9.00
2022-09-22T19:04:51.208Z,5.20
2022-09-22T19:07:41.082Z,5.75
2022-09-22T19:10:11.995Z,5.03
2022-09-22T19:12:42.834Z,2.72
2022-09-22T19:15:16.371Z,2.50
2022-09-22T19:17:44.585Z,6.03
2022-09-22T19:20:17.368Z,3.83
2022-09-22T19:25:14.929Z,3.75
2022-09-22T19:27:41.987Z,1.58
2022-09-22T19:30:10.546Z,2.75
2022-09-22T19:32:38.366Z,2.28
2022-09-22T19:35:09.519Z,2.75
2022-09-22T19:37:41.270Z,3.47
2022-09-22T19:40:09.679Z,2.85
2022-09-22T19:42:39.979Z,5.03
2022-09-22T19:45:09.316Z,8.77
2022-09-22T19:47:37.100Z,10.73
2022-09-22T19:50:05.233Z,11.13
2022-09-22T19:52:32.333Z,5.47
2022-09-22T19:54:59.492Z,8.63
2022-09-22T19:57:26.694Z,2.78
2022-09-22T19:59:56.957Z,4.03
2022-09-22T20:02:24.063Z,3.90
2022-09-22T20:04:53.689Z,1.75
2022-09-22T20:10:03.155Z,4.95
2022-09-22T20:12:31.815Z,3.38
2022-09-22T20:14:58.863Z,2.58
2022-09-22T20:17:26.057Z,2.35
2022-09-22T20:19:53.054Z,1.50
2022-09-22T20:22:20.232Z,2.47
2022-09-22T20:24:54.742Z,4.25
2022-09-22T20:27:32.818Z,1.35
2022-09-22T20:30:00.778Z,2.70
2022-09-22T20:32:31.481Z,2.00
2022-09-22T20:34:58.977Z,1.83
2022-09-22T20:37:26.230Z,1.73
2022-09-22T20:39:53.482Z,5.05
2022-09-22T20:42:20.598Z,4.07
2022-09-22T20:44:49.081Z,3.80
2022-09-22T20:47:18.688Z,5.72
2022-09-22T20:49:51.274Z,2.78
2022-09-22T20:54:48.459Z,1.92
2022-09-22T20:57:16.170Z,6.97
2022-09-22T20:59:45.673Z,4.40
2022-09-22T21:02:14.556Z,2.67
2022-09-22T21:04:42.214Z,2.22
2022-09-22T21:07:10.164Z,1.42
2022-09-22T21:09:55.926Z,5.30
2022-09-22T21:12:28.605Z,3.30
2022-09-22T21:14:58.632Z,1.98
2022-09-22T21:17:27.872Z,1.98
2022-09-22T21:19:57.782Z,1.60
2022-09-22T21:22:27.997Z,3.75
2022-09-22T21:24:55.340Z,1.75
2022-09-22T21:27:22.341Z,3.67
2022-09-22T21:29:49.328Z,3.22
2022-09-22T21:32:16.548Z,3.85
2022-09-22T21:34:43.991Z,1.75
2022-09-22T21:37:10.994Z,1.10
2022-09-22T21:39:38.085Z,2.78
2022-09-22T21:42:05.214Z,3.47
2022-09-22T21:44:32.556Z,2.45
2022-09-22T21:47:00.636Z,2.10
2022-09-22T21:49:28.298Z,2.05
2022-09-22T21:51:55.221Z,1.45
2022-09-22T21:54:23.098Z,4.30
2022-09-22T21:56:50.739Z,2.97
2022-09-22T21:59:18.043Z,2.55
2022-09-22T22:01:45.387Z,2.25
2022-09-22T22:04:15.134Z,2.30
2022-09-22T22:07:25.903Z,3.13
2022-09-22T22:10:02.923Z,3.20
2022-09-22T22:12:40.138Z,1.75
2022-09-22T22:15:10.690Z,1.27
2022-09-22T22:17:37.542Z,2.88
2022-09-22T22:20:05.263Z,1.10
2022-09-22T22:22:32.248Z,1.50
2022-09-22T22:24:59.125Z,3.38
2022-09-22T22:27:26.262Z,2.05
2022-09-22T22:29:54.153Z,1.98
2022-09-22T22:32:21.782Z,3.17
2022-09-22T22:34:48.764Z,2.92
2022-09-22T22:37:17.426Z,2.50
2022-09-22T22:39:54.841Z,2.30
2022-09-22T22:42:21.867Z,1.95
2022-09-22T22:44:49.393Z,1.05
2022-09-22T22:47:17.147Z,3.75
2022-09-22T22:49:44.322Z,4.40
2022-09-22T22:52:11.426Z,3.28
2022-09-22T22:54:38.414Z,3.72
2022-09-22T22:57:05.315Z,1.50
2022-09-22T22:59:32.319Z,3.05
2022-09-22T23:01:59.336Z,1.95
2022-09-22T23:04:26.274Z,2.08
2022-09-22T23:06:53.240Z,1.13
2022-09-22T23:09:20.140Z,3.40
2022-09-22T23:11:47.589Z,3.22
2022-09-22T23:14:16.368Z,1.48
2022-09-22T23:16:46.019Z,1.95
2022-09-22T23:19:17.994Z,1.30
2022-09-22T23:21:45.327Z,1.20
2022-09-22T23:24:18.795Z,4.10
2022-09-22T23:26:46.176Z,2.03
2022-09-22T23:29:13.450Z,1.60
2022-09-22T23:31:40.344Z,1.42
2022-09-22T23:34:07.214Z,2.42
2022-09-22T23:36:34.428Z,2.55
2022-09-22T23:39:04.649Z,1.45
2022-09-22T23:41:34.380Z,5.07
2022-09-22T23:44:02.976Z,2.28
2022-09-22T23:46:30.097Z,3.78
2022-09-22T23:48:57.891Z,1.30
2022-09-22T23:51:24.757Z,3.85
2022-09-22T23:53:51.854Z,3.60
2022-09-22T23:56:19.599Z,1.63
2022-09-22T23:58:46.799Z,1.83
